sensor_id;sensor_type;location;lat;lon;timestamp;temperature;humidity
5415;DHT22;2730;51.512;7.504;2023-04-15T00:00:06;5.80;99.90
5415;DHT22;2730;51.512;7.504;2023-04-15T00:02:34;5.80;99.90
5415;DHT22;2730;51.512;7.504;2023-04-15T00:05:01;6.00;99.90
5415;DHT22;2730;51.512;7.504;2023-04-15T00:07:28;5.90;99.90
5415;DHT22;2730;51.512;7.504;2023-04-15T00:09:56;5.80;99.90
5415;DHT22;2730;51.512;7.504;2023-04-15T00:12:24;5.80;99.90
5415;DHT22;2730;51.512;7.504;2023-04-15T00:14:51;5.90;99.90
5415;DHT22;2730;51.512;7.504;2023-04-15T00:17:19;5.90;99.90
5415;DHT22;2730;51.512;7.504;2023-04-15T00:19:46;5.80;99.90
5415;DHT22;2730;51.512;7.504;2023-04-15T00:22:13;5.80;99.90
5415;DHT22;2730;51.512;7.504;2023-04-15T00:24:39;5.70;99.90
5415;DHT22;2730;51.512;7.504;2023-04-15T00:27:07;5.80;99.90
5415;DHT22;2730;51.512;7.504;2023-04-15T00:29:35;5.80;99.90
5415;DHT22;2730;51.512;7.504;2023-04-15T00:32:02;5.70;99.90
5415;DHT22;2730;51.512;7.504;2023-04-15T00:34:29;5.70;99.90
5415;DHT22;2730;51.512;7.504;2023-04-15T00:36:56;5.70;99.90
5415;DHT22;2730;51.512;7.504;2023-04-15T00:39:24;5.70;99.90
5415;DHT22;2730;51.512;7.504;2023-04-15T00:41:51;5.60;99.90
5415;DHT22;2730;51.512;7.504;2023-04-15T00:44:18;5.70;99.90
5415;DHT22;2730;51.512;7.504;2023-04-15T00:46:47;5.70;99.90
5415;DHT22;2730;51.512;7.504;2023-04-15T00:49:16;5.60;99.90
5415;DHT22;2730;51.512;7.504;2023-04-15T00:51:43;5.60;99.90
5415;DHT22;2730;51.512;7.504;2023-04-15T00:54:10;5.60;99.90
5415;DHT22;2730;51.512;7.504;2023-04-15T00:56:38;5.60;99.90
5415;DHT22;2730;51.512;7.504;2023-04-15T00:59:05;5.70;99.90
5415;DHT22;2730;51.512;7.504;2023-04-15T01:01:33;5.90;99.90
5415;DHT22;2730;51.512;7.504;2023-04-15T01:04:02;5.70;99.90
5415;DHT22;2730;51.512;7.504;2023-04-15T01:06:29;5.70;99.90
5415;DHT22;2730;51.512;7.504;2023-04-15T01:08:57;5.60;99.90
5415;DHT22;2730;51.512;7.504;2023-04-15T01:11:24;5.50;99.90
5415;DHT22;2730;51.512;7.504;2023-04-15T01:13:51;5.50;99.90
5415;DHT22;2730;51.512;7.504;2023-04-15T01:16:18;5.70;99.90
5415;DHT22;2730;51.512;7.504;2023-04-15T01:18:45;5.60;99.90
5415;DHT22;2730;51.512;7.504;2023-04-15T01:21:13;5.60;99.90
5415;DHT22;2730;51.512;7.504;2023-04-15T01:23:40;5.50;99.90
5415;DHT22;2730;51.512;7.504;2023-04-15T01:26:09;5.60;99.90
5415;DHT22;2730;51.512;7.504;2023-04-15T01:28:36;5.50;99.90
5415;DHT22;2730;51.512;7.504;2023-04-15T01:31:08;5.50;99.90
5415;DHT22;2730;51.512;7.504;2023-04-15T01:33:35;5.40;99.90
5415;DHT22;2730;51.512;7.504;2023-04-15T01:36:02;5.40;99.90
5415;DHT22;2730;51.512;7.504;2023-04-15T01:38:30;5.40;99.90
5415;DHT22;2730;51.512;7.504;2023-04-15T01:40:57;5.30;99.90
5415;DHT22;2730;51.512;7.504;2023-04-15T01:43:26;5.30;99.90
5415;DHT22;2730;51.512;7.504;2023-04-15T01:45:53;5.30;99.90
5415;DHT22;2730;51.512;7.504;2023-04-15T01:48:20;5.30;99.90
5415;DHT22;2730;51.512;7.504;2023-04-15T01:50:47;5.20;99.90
5415;DHT22;2730;51.512;7.504;2023-04-15T01:53:14;5.20;99.90
5415;DHT22;2730;51.512;7.504;2023-04-15T01:55:41;5.10;99.90
5415;DHT22;2730;51.512;7.504;2023-04-15T01:58:08;5.10;99.90
5415;DHT22;2730;51.512;7.504;2023-04-15T02:00:36;5.00;99.90
5415;DHT22;2730;51.512;7.504;2023-04-15T02:03:03;5.00;99.90
5415;DHT22;2730;51.512;7.504;2023-04-15T02:05:31;5.00;99.90
5415;DHT22;2730;51.512;7.504;2023-04-15T02:07:58;5.10;99.90
5415;DHT22;2730;51.512;7.504;2023-04-15T02:10:25;5.10;99.90
5415;DHT22;2730;51.512;7.504;2023-04-15T02:12:51;5.10;99.90
5415;DHT22;2730;51.512;7.504;2023-04-15T02:15:18;5.00;99.90
5415;DHT22;2730;51.512;7.504;2023-04-15T02:17:46;5.00;99.90
5415;DHT22;2730;51.512;7.504;2023-04-15T02:20:15;4.90;99.90
5415;DHT22;2730;51.512;7.504;2023-04-15T02:22:43;4.90;99.90
5415;DHT22;2730;51.512;7.504;2023-04-15T02:25:10;4.90;99.90
5415;DHT22;2730;51.512;7.504;2023-04-15T02:27:37;4.80;99.90
5415;DHT22;2730;51.512;7.504;2023-04-15T02:30:04;4.80;99.90
5415;DHT22;2730;51.512;7.504;2023-04-15T02:32:31;4.70;99.90
5415;DHT22;2730;51.512;7.504;2023-04-15T02:35:03;4.70;99.90
5415;DHT22;2730;51.512;7.504;2023-04-15T02:37:30;4.70;99.90
5415;DHT22;2730;51.512;7.504;2023-04-15T02:39:57;4.70;99.90
5415;DHT22;2730;51.512;7.504;2023-04-15T02:42:25;4.70;99.90
5415;DHT22;2730;51.512;7.504;2023-04-15T02:44:53;4.60;99.90
5415;DHT22;2730;51.512;7.504;2023-04-15T02:47:20;4.70;99.90
5415;DHT22;2730;51.512;7.504;2023-04-15T02:49:48;4.70;99.90
5415;DHT22;2730;51.512;7.504;2023-04-15T02:52:16;4.60;99.90
5415;DHT22;2730;51.512;7.504;2023-04-15T02:54:42;4.70;99.90
5415;DHT22;2730;51.512;7.504;2023-04-15T02:57:10;4.70;99.90
5415;DHT22;2730;51.512;7.504;2023-04-15T02:59:37;4.70;99.90
5415;DHT22;2730;51.512;7.504;2023-04-15T03:02:04;4.60;99.90
5415;DHT22;2730;51.512;7.504;2023-04-15T03:04:32;4.70;99.90
5415;DHT22;2730;51.512;7.504;2023-04-15T03:06:59;4.70;99.90
5415;DHT22;2730;51.512;7.504;2023-04-15T03:09:27;4.60;99.90
5415;DHT22;2730;51.512;7.504;2023-04-15T03:11:54;4.60;99.90
5415;DHT22;2730;51.512;7.504;2023-04-15T03:14:21;4.70;99.90
5415;DHT22;2730;51.512;7.504;2023-04-15T03:16:48;4.70;99.90
5415;DHT22;2730;51.512;7.504;2023-04-15T03:19:16;4.70;99.90
5415;DHT22;2730;51.512;7.504;2023-04-15T03:21:43;4.70;99.90
5415;DHT22;2730;51.512;7.504;2023-04-15T03:24:10;4.70;99.90
5415;DHT22;2730;51.512;7.504;2023-04-15T03:26:38;4.60;99.90
5415;DHT22;2730;51.512;7.504;2023-04-15T03:29:05;4.60;99.90
5415;DHT22;2730;51.512;7.504;2023-04-15T03:31:31;4.60;99.90
5415;DHT22;2730;51.512;7.504;2023-04-15T03:33:58;4.50;99.90
5415;DHT22;2730;51.512;7.504;2023-04-15T03:36:27;4.50;99.90
5415;DHT22;2730;51.512;7.504;2023-04-15T03:38:54;4.50;99.90
5415;DHT22;2730;51.512;7.504;2023-04-15T03:41:22;4.50;99.90
5415;DHT22;2730;51.512;7.504;2023-04-15T03:43:50;4.40;99.90
5415;DHT22;2730;51.512;7.504;2023-04-15T03:46:17;4.40;99.90
5415;DHT22;2730;51.512;7.504;2023-04-15T03:48:44;4.40;99.90
5415;DHT22;2730;51.512;7.504;2023-04-15T03:51:10;4.30;99.90
5415;DHT22;2730;51.512;7.504;2023-04-15T03:53:37;4.30;99.90
5415;DHT22;2730;51.512;7.504;2023-04-15T03:56:04;4.30;99.90
5415;DHT22;2730;51.512;7.504;2023-04-15T03:58:31;4.30;99.90
5415;DHT22;2730;51.512;7.504;2023-04-15T04:00:59;4.20;99.90
5415;DHT22;2730;51.512;7.504;2023-04-15T04:03:26;4.20;99.90
5415;DHT22;2730;51.512;7.504;2023-04-15T04:05:53;4.10;99.90
5415;DHT22;2730;51.512;7.504;2023-04-15T04:08:20;4.10;99.90
5415;DHT22;2730;51.512;7.504;2023-04-15T04:10:46;4.10;99.90
5415;DHT22;2730;51.512;7.504;2023-04-15T04:13:13;4.00;99.90
5415;DHT22;2730;51.512;7.504;2023-04-15T04:15:40;4.00;99.90
5415;DHT22;2730;51.512;7.504;2023-04-15T04:18:08;4.00;99.90
5415;DHT22;2730;51.512;7.504;2023-04-15T04:20:35;4.00;99.90
5415;DHT22;2730;51.512;7.504;2023-04-15T04:23:02;4.00;99.90
5415;DHT22;2730;51.512;7.504;2023-04-15T04:25:29;4.00;99.90
5415;DHT22;2730;51.512;7.504;2023-04-15T04:27:56;4.00;99.90
5415;DHT22;2730;51.512;7.504;2023-04-15T04:30:23;4.00;99.90
5415;DHT22;2730;51.512;7.504;2023-04-15T04:32:50;4.00;99.90
5415;DHT22;2730;51.512;7.504;2023-04-15T04:35:18;4.00;99.90
5415;DHT22;2730;51.512;7.504;2023-04-15T04:37:45;4.00;99.90
5415;DHT22;2730;51.512;7.504;2023-04-15T04:40:12;4.00;99.90
5415;DHT22;2730;51.512;7.504;2023-04-15T04:42:39;4.00;99.90
5415;DHT22;2730;51.512;7.504;2023-04-15T04:45:06;4.00;99.90
5415;DHT22;2730;51.512;7.504;2023-04-15T04:47:33;4.00;99.90
5415;DHT22;2730;51.512;7.504;2023-04-15T04:50:00;4.00;99.90
5415;DHT22;2730;51.512;7.504;2023-04-15T04:52:29;4.00;99.90
5415;DHT22;2730;51.512;7.504;2023-04-15T04:54:56;4.00;99.90
5415;DHT22;2730;51.512;7.504;2023-04-15T04:57:22;4.00;99.90
5415;DHT22;2730;51.512;7.504;2023-04-15T04:59:49;4.10;99.90
5415;DHT22;2730;51.512;7.504;2023-04-15T05:02:16;4.10;99.90
5415;DHT22;2730;51.512;7.504;2023-04-15T05:04:43;4.10;99.90
5415;DHT22;2730;51.512;7.504;2023-04-15T05:07:09;4.10;99.90
5415;DHT22;2730;51.512;7.504;2023-04-15T05:09:37;4.20;99.90
5415;DHT22;2730;51.512;7.504;2023-04-15T05:12:05;4.20;99.90
5415;DHT22;2730;51.512;7.504;2023-04-15T05:14:32;4.30;99.90
5415;DHT22;2730;51.512;7.504;2023-04-15T05:16:59;4.30;99.90
5415;DHT22;2730;51.512;7.504;2023-04-15T05:19:25;4.30;99.90
5415;DHT22;2730;51.512;7.504;2023-04-15T05:21:52;4.40;99.90
5415;DHT22;2730;51.512;7.504;2023-04-15T05:24:19;4.40;99.90
5415;DHT22;2730;51.512;7.504;2023-04-15T05:26:47;4.40;99.90
5415;DHT22;2730;51.512;7.504;2023-04-15T05:29:14;4.50;99.90
5415;DHT22;2730;51.512;7.504;2023-04-15T05:31:40;4.60;99.90
5415;DHT22;2730;51.512;7.504;2023-04-15T05:34:08;4.70;99.90
5415;DHT22;2730;51.512;7.504;2023-04-15T05:36:36;4.70;99.90
5415;DHT22;2730;51.512;7.504;2023-04-15T05:39:03;4.80;99.90
5415;DHT22;2730;51.512;7.504;2023-04-15T05:41:29;4.90;99.90
5415;DHT22;2730;51.512;7.504;2023-04-15T05:43:57;5.00;99.90
5415;DHT22;2730;51.512;7.504;2023-04-15T05:46:24;5.10;99.90
5415;DHT22;2730;51.512;7.504;2023-04-15T05:48:52;5.20;99.90
5415;DHT22;2730;51.512;7.504;2023-04-15T05:51:18;5.30;99.90
5415;DHT22;2730;51.512;7.504;2023-04-15T05:53:45;5.40;99.90
5415;DHT22;2730;51.512;7.504;2023-04-15T05:56:12;5.50;99.90
5415;DHT22;2730;51.512;7.504;2023-04-15T05:58:39;5.60;99.90
5415;DHT22;2730;51.512;7.504;2023-04-15T06:01:07;5.70;99.90
5415;DHT22;2730;51.512;7.504;2023-04-15T06:03:34;5.70;99.90
5415;DHT22;2730;51.512;7.504;2023-04-15T06:06:01;5.80;99.90
5415;DHT22;2730;51.512;7.504;2023-04-15T06:08:28;5.90;99.90
5415;DHT22;2730;51.512;7.504;2023-04-15T06:10:54;6.00;99.90
5415;DHT22;2730;51.512;7.504;2023-04-15T06:13:21;6.10;99.90
5415;DHT22;2730;51.512;7.504;2023-04-15T06:15:48;6.20;99.90
5415;DHT22;2730;51.512;7.504;2023-04-15T06:18:16;6.20;99.90
5415;DHT22;2730;51.512;7.504;2023-04-15T06:20:43;6.30;99.90
5415;DHT22;2730;51.512;7.504;2023-04-15T06:23:10;6.30;99.90
5415;DHT22;2730;51.512;7.504;2023-04-15T06:25:36;6.40;99.90
5415;DHT22;2730;51.512;7.504;2023-04-15T06:28:03;6.50;99.90
5415;DHT22;2730;51.512;7.504;2023-04-15T06:30:30;6.50;99.90
5415;DHT22;2730;51.512;7.504;2023-04-15T06:32:57;6.60;99.90
5415;DHT22;2730;51.512;7.504;2023-04-15T06:35:25;6.70;99.90
5415;DHT22;2730;51.512;7.504;2023-04-15T06:37:53;6.80;99.90
5415;DHT22;2730;51.512;7.504;2023-04-15T06:40:19;6.90;99.90
5415;DHT22;2730;51.512;7.504;2023-04-15T06:42:46;6.90;99.90
5415;DHT22;2730;51.512;7.504;2023-04-15T06:45:13;7.00;99.90
5415;DHT22;2730;51.512;7.504;2023-04-15T06:47:40;7.20;99.90
5415;DHT22;2730;51.512;7.504;2023-04-15T06:50:08;7.20;99.90
5415;DHT22;2730;51.512;7.504;2023-04-15T06:52:37;7.30;99.90
5415;DHT22;2730;51.512;7.504;2023-04-15T06:55:04;7.30;99.90
5415;DHT22;2730;51.512;7.504;2023-04-15T06:57:32;7.30;99.90
5415;DHT22;2730;51.512;7.504;2023-04-15T06:59:59;7.20;99.90
5415;DHT22;2730;51.512;7.504;2023-04-15T07:02:26;7.20;99.90
5415;DHT22;2730;51.512;7.504;2023-04-15T07:04:52;7.30;99.90
5415;DHT22;2730;51.512;7.504;2023-04-15T07:07:20;7.40;99.90
5415;DHT22;2730;51.512;7.504;2023-04-15T07:09:48;7.60;99.90
5415;DHT22;2730;51.512;7.504;2023-04-15T07:12:15;7.60;99.90
5415;DHT22;2730;51.512;7.504;2023-04-15T07:14:41;7.70;99.90
5415;DHT22;2730;51.512;7.504;2023-04-15T07:17:09;7.60;99.90
5415;DHT22;2730;51.512;7.504;2023-04-15T07:19:36;7.80;99.90
5415;DHT22;2730;51.512;7.504;2023-04-15T07:22:03;8.00;99.90
5415;DHT22;2730;51.512;7.504;2023-04-15T07:24:29;8.10;99.90
5415;DHT22;2730;51.512;7.504;2023-04-15T07:26:57;8.10;99.90
5415;DHT22;2730;51.512;7.504;2023-04-15T07:29:24;8.30;99.90
5415;DHT22;2730;51.512;7.504;2023-04-15T07:31:51;8.40;99.90
5415;DHT22;2730;51.512;7.504;2023-04-15T07:34:18;8.50;99.90
5415;DHT22;2730;51.512;7.504;2023-04-15T07:36:45;8.70;99.90
5415;DHT22;2730;51.512;7.504;2023-04-15T07:39:15;8.80;99.90
5415;DHT22;2730;51.512;7.504;2023-04-15T07:41:42;8.90;99.90
5415;DHT22;2730;51.512;7.504;2023-04-15T07:44:10;9.10;99.90
5415;DHT22;2730;51.512;7.504;2023-04-15T07:46:37;9.30;99.90
5415;DHT22;2730;51.512;7.504;2023-04-15T07:49:03;9.50;32.10
5415;DHT22;2730;51.512;7.504;2023-04-15T07:51:30;9.80;1.00
5415;DHT22;2730;51.512;7.504;2023-04-15T07:53:57;9.80;1.00
5415;DHT22;2730;51.512;7.504;2023-04-15T07:56:24;9.90;1.00
5415;DHT22;2730;51.512;7.504;2023-04-15T07:58:52;9.80;1.00
5415;DHT22;2730;51.512;7.504;2023-04-15T08:01:20;9.40;5.20
5415;DHT22;2730;51.512;7.504;2023-04-15T08:03:47;9.60;1.00
5415;DHT22;2730;51.512;7.504;2023-04-15T08:06:13;9.60;3.00
5415;DHT22;2730;51.512;7.504;2023-04-15T08:08:40;9.80;1.00
5415;DHT22;2730;51.512;7.504;2023-04-15T08:11:07;9.90;1.00
5415;DHT22;2730;51.512;7.504;2023-04-15T08:13:34;10.20;1.00
5415;DHT22;2730;51.512;7.504;2023-04-15T08:16:17;10.50;1.00
5415;DHT22;2730;51.512;7.504;2023-04-15T08:18:45;10.90;1.00
5415;DHT22;2730;51.512;7.504;2023-04-15T08:21:12;11.40;1.00
5415;DHT22;2730;51.512;7.504;2023-04-15T08:23:39;11.70;99.90
5415;DHT22;2730;51.512;7.504;2023-04-15T08:26:07;11.50;99.90
5415;DHT22;2730;51.512;7.504;2023-04-15T08:28:34;11.40;99.90
5415;DHT22;2730;51.512;7.504;2023-04-15T08:31:01;11.10;99.90
5415;DHT22;2730;51.512;7.504;2023-04-15T08:33:28;10.90;1.00
5415;DHT22;2730;51.512;7.504;2023-04-15T08:35:56;10.70;1.00
5415;DHT22;2730;51.512;7.504;2023-04-15T08:38:23;10.50;1.00
5415;DHT22;2730;51.512;7.504;2023-04-15T08:40:50;10.30;1.00
5415;DHT22;2730;51.512;7.504;2023-04-15T08:43:20;9.90;1.00
5415;DHT22;2730;51.512;7.504;2023-04-15T08:45:49;9.70;1.00
5415;DHT22;2730;51.512;7.504;2023-04-15T08:48:16;9.60;1.00
5415;DHT22;2730;51.512;7.504;2023-04-15T08:50:43;9.50;1.00
5415;DHT22;2730;51.512;7.504;2023-04-15T08:53:12;9.50;1.00
5415;DHT22;2730;51.512;7.504;2023-04-15T08:55:42;9.50;1.00
5415;DHT22;2730;51.512;7.504;2023-04-15T08:58:10;9.60;1.00
5415;DHT22;2730;51.512;7.504;2023-04-15T09:00:38;9.80;1.00
5415;DHT22;2730;51.512;7.504;2023-04-15T09:03:05;9.80;1.00
5415;DHT22;2730;51.512;7.504;2023-04-15T09:05:32;9.70;1.00
5415;DHT22;2730;51.512;7.504;2023-04-15T09:07:59;9.60;1.00
5415;DHT22;2730;51.512;7.504;2023-04-15T09:10:28;9.50;1.00
5415;DHT22;2730;51.512;7.504;2023-04-15T09:12:55;9.70;1.00
5415;DHT22;2730;51.512;7.504;2023-04-15T09:15:24;9.60;1.00
5415;DHT22;2730;51.512;7.504;2023-04-15T09:17:52;9.50;1.00
5415;DHT22;2730;51.512;7.504;2023-04-15T09:20:19;9.60;1.00
5415;DHT22;2730;51.512;7.504;2023-04-15T09:22:47;9.70;1.00
5415;DHT22;2730;51.512;7.504;2023-04-15T09:25:28;9.80;1.00
5415;DHT22;2730;51.512;7.504;2023-04-15T09:27:56;9.70;1.00
5415;DHT22;2730;51.512;7.504;2023-04-15T09:30:24;9.60;1.00
5415;DHT22;2730;51.512;7.504;2023-04-15T09:32:52;9.50;1.00
5415;DHT22;2730;51.512;7.504;2023-04-15T09:35:19;9.70;1.00
5415;DHT22;2730;51.512;7.504;2023-04-15T09:37:46;9.70;1.00
5415;DHT22;2730;51.512;7.504;2023-04-15T09:40:13;9.60;1.00
5415;DHT22;2730;51.512;7.504;2023-04-15T09:42:54;9.60;1.00
5415;DHT22;2730;51.512;7.504;2023-04-15T09:45:22;9.60;1.00
5415;DHT22;2730;51.512;7.504;2023-04-15T09:47:49;9.70;1.00
5415;DHT22;2730;51.512;7.504;2023-04-15T09:50:18;9.60;1.00
5415;DHT22;2730;51.512;7.504;2023-04-15T09:52:45;9.50;9.40
5415;DHT22;2730;51.512;7.504;2023-04-15T09:55:13;9.50;8.40
5415;DHT22;2730;51.512;7.504;2023-04-15T09:57:40;9.50;19.00
5415;DHT22;2730;51.512;7.504;2023-04-15T10:00:10;9.60;17.40
5415;DHT22;2730;51.512;7.504;2023-04-15T10:02:39;9.60;1.00
5415;DHT22;2730;51.512;7.504;2023-04-15T10:05:07;9.70;2.70
5415;DHT22;2730;51.512;7.504;2023-04-15T10:07:35;9.70;3.50
5415;DHT22;2730;51.512;7.504;2023-04-15T10:10:03;9.60;7.40
5415;DHT22;2730;51.512;7.504;2023-04-15T10:12:30;9.40;45.10
5415;DHT22;2730;51.512;7.504;2023-04-15T10:15:00;9.40;44.30
5415;DHT22;2730;51.512;7.504;2023-04-15T10:17:32;9.30;31.10
5415;DHT22;2730;51.512;7.504;2023-04-15T10:20:00;9.20;43.80
5415;DHT22;2730;51.512;7.504;2023-04-15T10:22:27;9.20;44.20
5415;DHT22;2730;51.512;7.504;2023-04-15T10:24:55;9.20;56.10
5415;DHT22;2730;51.512;7.504;2023-04-15T10:27:22;9.30;39.10
5415;DHT22;2730;51.512;7.504;2023-04-15T10:29:50;9.40;54.80
5415;DHT22;2730;51.512;7.504;2023-04-15T10:32:18;9.40;36.70
5415;DHT22;2730;51.512;7.504;2023-04-15T10:34:48;9.40;22.70
5415;DHT22;2730;51.512;7.504;2023-04-15T10:37:20;9.30;32.30
5415;DHT22;2730;51.512;7.504;2023-04-15T10:39:47;9.20;70.50
5415;DHT22;2730;51.512;7.504;2023-04-15T10:42:16;9.20;77.70
5415;DHT22;2730;51.512;7.504;2023-04-15T10:44:47;9.30;69.70
5415;DHT22;2730;51.512;7.504;2023-04-15T10:47:15;9.30;52.00
5415;DHT22;2730;51.512;7.504;2023-04-15T10:49:46;9.40;40.10
5415;DHT22;2730;51.512;7.504;2023-04-15T10:52:16;9.40;44.10
5415;DHT22;2730;51.512;7.504;2023-04-15T10:54:43;9.40;41.40
5415;DHT22;2730;51.512;7.504;2023-04-15T10:57:15;9.30;53.60
5415;DHT22;2730;51.512;7.504;2023-04-15T11:00:08;9.30;65.70
5415;DHT22;2730;51.512;7.504;2023-04-15T11:02:41;9.30;86.70
5415;DHT22;2730;51.512;7.504;2023-04-15T11:05:08;9.30;91.40
5415;DHT22;2730;51.512;7.504;2023-04-15T11:07:39;9.20;99.10
5415;DHT22;2730;51.512;7.504;2023-04-15T11:13:27;9.30;99.90
5415;DHT22;2730;51.512;7.504;2023-04-15T11:16:04;9.40;99.10
5415;DHT22;2730;51.512;7.504;2023-04-15T11:18:35;9.40;99.90
5415;DHT22;2730;51.512;7.504;2023-04-15T11:21:04;9.40;99.90
5415;DHT22;2730;51.512;7.504;2023-04-15T11:23:35;9.40;99.90
5415;DHT22;2730;51.512;7.504;2023-04-15T11:26:04;9.30;99.90
5415;DHT22;2730;51.512;7.504;2023-04-15T11:28:34;9.20;99.90
5415;DHT22;2730;51.512;7.504;2023-04-15T11:31:06;9.20;99.90
5415;DHT22;2730;51.512;7.504;2023-04-15T11:33:35;9.20;99.90
5415;DHT22;2730;51.512;7.504;2023-04-15T11:36:02;9.20;99.90
5415;DHT22;2730;51.512;7.504;2023-04-15T11:38:29;9.20;99.90
5415;DHT22;2730;51.512;7.504;2023-04-15T11:40:57;9.20;99.90
5415;DHT22;2730;51.512;7.504;2023-04-15T11:43:24;9.30;99.90
5415;DHT22;2730;51.512;7.504;2023-04-15T11:45:53;9.30;99.90
5415;DHT22;2730;51.512;7.504;2023-04-15T11:48:22;9.30;99.90
5415;DHT22;2730;51.512;7.504;2023-04-15T11:50:53;9.30;99.90
5415;DHT22;2730;51.512;7.504;2023-04-15T11:53:20;9.30;99.90
5415;DHT22;2730;51.512;7.504;2023-04-15T11:55:49;9.30;99.90
5415;DHT22;2730;51.512;7.504;2023-04-15T11:58:20;9.40;99.90
5415;DHT22;2730;51.512;7.504;2023-04-15T12:00:49;9.40;99.90
5415;DHT22;2730;51.512;7.504;2023-04-15T12:03:21;9.30;99.90
5415;DHT22;2730;51.512;7.504;2023-04-15T12:06:08;9.20;99.90
5415;DHT22;2730;51.512;7.504;2023-04-15T12:09:09;9.40;99.90
5415;DHT22;2730;51.512;7.504;2023-04-15T12:11:46;9.60;99.90
5415;DHT22;2730;51.512;7.504;2023-04-15T12:14:20;9.60;99.90
5415;DHT22;2730;51.512;7.504;2023-04-15T12:16:49;9.70;99.90
5415;DHT22;2730;51.512;7.504;2023-04-15T12:19:18;9.60;99.90
5415;DHT22;2730;51.512;7.504;2023-04-15T12:21:49;9.60;99.90
5415;DHT22;2730;51.512;7.504;2023-04-15T12:24:20;9.60;99.90
5415;DHT22;2730;51.512;7.504;2023-04-15T12:26:49;9.50;99.90
5415;DHT22;2730;51.512;7.504;2023-04-15T12:29:17;9.40;99.90
5415;DHT22;2730;51.512;7.504;2023-04-15T12:31:48;9.40;99.90
5415;DHT22;2730;51.512;7.504;2023-04-15T12:34:16;9.40;99.90
5415;DHT22;2730;51.512;7.504;2023-04-15T12:36:44;9.40;99.90
5415;DHT22;2730;51.512;7.504;2023-04-15T12:39:12;9.40;99.90
5415;DHT22;2730;51.512;7.504;2023-04-15T12:41:39;9.50;99.90
5415;DHT22;2730;51.512;7.504;2023-04-15T12:44:06;9.60;99.90
5415;DHT22;2730;51.512;7.504;2023-04-15T12:46:34;9.50;99.90
5415;DHT22;2730;51.512;7.504;2023-04-15T12:49:01;9.50;99.90
5415;DHT22;2730;51.512;7.504;2023-04-15T12:51:29;9.50;99.90
5415;DHT22;2730;51.512;7.504;2023-04-15T12:53:56;9.70;99.90
5415;DHT22;2730;51.512;7.504;2023-04-15T12:56:23;9.60;99.90
5415;DHT22;2730;51.512;7.504;2023-04-15T12:58:50;9.60;99.90
5415;DHT22;2730;51.512;7.504;2023-04-15T13:01:17;9.60;99.90
5415;DHT22;2730;51.512;7.504;2023-04-15T13:03:45;9.60;99.90
5415;DHT22;2730;51.512;7.504;2023-04-15T13:06:12;9.60;99.90
5415;DHT22;2730;51.512;7.504;2023-04-15T13:08:39;9.50;99.90
5415;DHT22;2730;51.512;7.504;2023-04-15T13:11:06;9.50;99.90
5415;DHT22;2730;51.512;7.504;2023-04-15T13:13:33;9.50;99.90
5415;DHT22;2730;51.512;7.504;2023-04-15T13:16:00;9.50;99.90
5415;DHT22;2730;51.512;7.504;2023-04-15T13:18:27;9.50;99.90
5415;DHT22;2730;51.512;7.504;2023-04-15T13:20:56;9.40;99.90
5415;DHT22;2730;51.512;7.504;2023-04-15T13:23:23;9.40;99.90
5415;DHT22;2730;51.512;7.504;2023-04-15T13:25:50;9.30;99.90
5415;DHT22;2730;51.512;7.504;2023-04-15T13:28:17;9.30;99.90
5415;DHT22;2730;51.512;7.504;2023-04-15T13:30:44;9.30;99.90
5415;DHT22;2730;51.512;7.504;2023-04-15T13:33:13;9.30;99.90
5415;DHT22;2730;51.512;7.504;2023-04-15T13:35:40;9.30;99.90
5415;DHT22;2730;51.512;7.504;2023-04-15T13:38:08;9.30;99.90
5415;DHT22;2730;51.512;7.504;2023-04-15T13:40:35;9.30;99.90
5415;DHT22;2730;51.512;7.504;2023-04-15T13:43:01;9.30;99.90
5415;DHT22;2730;51.512;7.504;2023-04-15T13:45:29;9.40;99.90
5415;DHT22;2730;51.512;7.504;2023-04-15T13:47:56;9.40;99.90
5415;DHT22;2730;51.512;7.504;2023-04-15T13:50:23;9.40;99.90
5415;DHT22;2730;51.512;7.504;2023-04-15T13:52:50;9.40;99.90
5415;DHT22;2730;51.512;7.504;2023-04-15T13:55:18;9.40;99.90
5415;DHT22;2730;51.512;7.504;2023-04-15T13:57:45;9.40;99.90
5415;DHT22;2730;51.512;7.504;2023-04-15T14:00:12;9.40;99.90
5415;DHT22;2730;51.512;7.504;2023-04-15T14:02:40;9.30;99.90
5415;DHT22;2730;51.512;7.504;2023-04-15T14:05:07;9.30;99.90
5415;DHT22;2730;51.512;7.504;2023-04-15T14:07:34;9.40;99.90
5415;DHT22;2730;51.512;7.504;2023-04-15T14:10:02;9.30;99.90
5415;DHT22;2730;51.512;7.504;2023-04-15T14:12:30;9.30;99.90
5415;DHT22;2730;51.512;7.504;2023-04-15T14:14:57;9.30;99.90
5415;DHT22;2730;51.512;7.504;2023-04-15T14:17:24;9.30;99.90
5415;DHT22;2730;51.512;7.504;2023-04-15T14:19:51;9.30;99.90
5415;DHT22;2730;51.512;7.504;2023-04-15T14:22:17;9.30;99.90
5415;DHT22;2730;51.512;7.504;2023-04-15T14:24:44;9.30;99.90
5415;DHT22;2730;51.512;7.504;2023-04-15T14:27:13;9.30;99.90
5415;DHT22;2730;51.512;7.504;2023-04-15T14:29:42;9.30;99.90
5415;DHT22;2730;51.512;7.504;2023-04-15T14:32:09;9.30;99.90
5415;DHT22;2730;51.512;7.504;2023-04-15T14:34:35;9.30;99.90
5415;DHT22;2730;51.512;7.504;2023-04-15T14:37:02;9.30;99.90
5415;DHT22;2730;51.512;7.504;2023-04-15T14:39:29;9.20;99.90
5415;DHT22;2730;51.512;7.504;2023-04-15T14:41:56;9.20;99.90
5415;DHT22;2730;51.512;7.504;2023-04-15T14:44:23;9.30;99.90
5415;DHT22;2730;51.512;7.504;2023-04-15T14:46:51;9.30;99.90
5415;DHT22;2730;51.512;7.504;2023-04-15T14:49:19;9.30;99.90
5415;DHT22;2730;51.512;7.504;2023-04-15T14:51:46;9.30;99.90
5415;DHT22;2730;51.512;7.504;2023-04-15T14:54:13;9.30;99.90
5415;DHT22;2730;51.512;7.504;2023-04-15T14:56:39;9.20;99.90
5415;DHT22;2730;51.512;7.504;2023-04-15T14:59:06;9.30;99.90
5415;DHT22;2730;51.512;7.504;2023-04-15T15:01:33;9.20;99.90
5415;DHT22;2730;51.512;7.504;2023-04-15T15:04:01;9.10;99.90
5415;DHT22;2730;51.512;7.504;2023-04-15T15:06:28;9.10;99.90
5415;DHT22;2730;51.512;7.504;2023-04-15T15:08:56;9.10;99.90
5415;DHT22;2730;51.512;7.504;2023-04-15T15:11:22;9.00;99.90
5415;DHT22;2730;51.512;7.504;2023-04-15T15:13:49;9.00;99.90
5415;DHT22;2730;51.512;7.504;2023-04-15T15:16:16;8.90;99.90
5415;DHT22;2730;51.512;7.504;2023-04-15T15:18:43;8.80;99.90
5415;DHT22;2730;51.512;7.504;2023-04-15T15:21:11;8.80;99.90
5415;DHT22;2730;51.512;7.504;2023-04-15T15:23:38;8.70;99.90
5415;DHT22;2730;51.512;7.504;2023-04-15T15:26:05;8.60;99.90
5415;DHT22;2730;51.512;7.504;2023-04-15T15:28:32;8.50;99.90
5415;DHT22;2730;51.512;7.504;2023-04-15T15:30:59;8.50;99.90
5415;DHT22;2730;51.512;7.504;2023-04-15T15:33:26;8.50;99.90
5415;DHT22;2730;51.512;7.504;2023-04-15T15:35:52;8.40;99.90
5415;DHT22;2730;51.512;7.504;2023-04-15T15:38:21;8.40;99.90
5415;DHT22;2730;51.512;7.504;2023-04-15T15:40:48;8.40;99.90
5415;DHT22;2730;51.512;7.504;2023-04-15T15:43:14;8.40;99.90
5415;DHT22;2730;51.512;7.504;2023-04-15T15:45:41;8.40;99.90
5415;DHT22;2730;51.512;7.504;2023-04-15T15:48:08;8.40;99.90
5415;DHT22;2730;51.512;7.504;2023-04-15T15:50:35;8.40;99.90
5415;DHT22;2730;51.512;7.504;2023-04-15T15:53:02;8.40;99.90
5415;DHT22;2730;51.512;7.504;2023-04-15T15:55:30;8.40;99.90
5415;DHT22;2730;51.512;7.504;2023-04-15T15:57:57;8.40;99.90
5415;DHT22;2730;51.512;7.504;2023-04-15T16:00:24;8.40;99.90
5415;DHT22;2730;51.512;7.504;2023-04-15T16:02:54;8.40;99.90
5415;DHT22;2730;51.512;7.504;2023-04-15T16:05:21;8.40;99.90
5415;DHT22;2730;51.512;7.504;2023-04-15T16:07:48;8.40;99.90
5415;DHT22;2730;51.512;7.504;2023-04-15T16:10:14;8.40;99.90
5415;DHT22;2730;51.512;7.504;2023-04-15T16:12:43;8.40;99.90
5415;DHT22;2730;51.512;7.504;2023-04-15T16:15:10;8.30;99.90
5415;DHT22;2730;51.512;7.504;2023-04-15T16:17:37;8.30;99.90
5415;DHT22;2730;51.512;7.504;2023-04-15T16:20:05;8.30;99.90
5415;DHT22;2730;51.512;7.504;2023-04-15T16:22:33;8.40;99.90
5415;DHT22;2730;51.512;7.504;2023-04-15T16:25:00;8.40;99.90